Terminal Aerodrome Forecast
Issued by NWS

Home | Current Version | Previous Version | Text Only | Print | Product List | Glossary On
Versions: 1 2 3 4 5 6 7 8 9 10 11 12 13 14 15 16 17 18 19 20 21 22 23 24 25 26
000
FTUS41 KGYX 290229 AAA
TAFAUG
TAF AMD
KAUG 290229Z 2902/2924 00000KT 3SM BR OVC005
     FM290400 VRB02KT 1 1/2SM -DZ BR VV002
     FM291100 35004KT 5SM BR OVC015
     FM291300 34011G18KT P6SM SCT035 SCT250=

USA.gov is the U.S. government's official web portal to all federal, state and local government web resources and services.